createdAt,value
2018-06-24T00:00:12.235Z,48.20
2018-06-24T00:02:40.490Z,48.30
2018-06-24T00:05:09.465Z,48.60
2018-06-24T00:07:38.502Z,49.80
2018-06-24T00:10:06.691Z,49.70
2018-06-24T00:12:34.907Z,50.40
2018-06-24T00:15:03.893Z,48.40
2018-06-24T00:17:32.116Z,48.40
2018-06-24T00:20:00.328Z,49.50
2018-06-24T00:22:28.595Z,48.60
2018-06-24T00:24:56.802Z,48.30
2018-06-24T00:27:25.023Z,50.90
2018-06-24T00:29:53.254Z,48.00
2018-06-24T00:32:21.453Z,48.50
2018-06-24T00:34:49.713Z,48.70
2018-06-24T00:37:18.781Z,48.30
2018-06-24T00:39:46.957Z,48.30
2018-06-24T00:42:15.185Z,49.80
2018-06-24T00:44:43.444Z,49.10
2018-06-24T00:47:12.419Z,49.00
2018-06-24T00:49:40.688Z,48.70
2018-06-24T00:52:08.891Z,49.40
2018-06-24T00:54:37.863Z,49.30
2018-06-24T00:57:06.121Z,49.30
2018-06-24T00:59:55.246Z,48.30
2018-06-24T01:02:23.450Z,48.10
2018-06-24T01:04:51.658Z,48.10
2018-06-24T01:07:19.936Z,48.60
2018-06-24T01:09:48.131Z,48.30
2018-06-24T01:12:17.146Z,48.30
2018-06-24T01:14:45.394Z,48.30
2018-06-24T01:17:13.680Z,48.20
2018-06-24T01:19:42.652Z,50.30
2018-06-24T01:22:10.885Z,50.20
2018-06-24T01:24:39.102Z,49.20
2018-06-24T01:27:07.326Z,48.30
2018-06-24T01:29:35.572Z,48.20
2018-06-24T01:32:04.554Z,48.10
2018-06-24T01:34:32.772Z,48.10
2018-06-24T01:37:00.994Z,48.20
2018-06-24T01:39:29.243Z,49.00
2018-06-24T01:41:57.466Z,48.60
2018-06-24T01:44:26.441Z,48.60
2018-06-24T01:46:54.664Z,48.60
2018-06-24T01:49:22.874Z,48.50
2018-06-24T01:51:51.130Z,49.40
2018-06-24T01:54:20.082Z,48.90
2018-06-24T01:56:49.058Z,49.80
2018-06-24T01:59:17.264Z,49.90
2018-06-24T02:01:46.282Z,49.80
2018-06-24T02:04:14.532Z,49.70
2018-06-24T02:06:43.552Z,51.10
2018-06-24T02:09:11.796Z,51.00
2018-06-24T02:11:40.766Z,52.70
2018-06-24T02:14:08.993Z,52.70
2018-06-24T02:16:37.210Z,53.50
2018-06-24T02:19:05.412Z,52.00
2018-06-24T02:21:34.442Z,49.90
2018-06-24T02:24:02.648Z,49.80
2018-06-24T02:26:30.878Z,50.70
2018-06-24T02:28:59.129Z,49.70
2018-06-24T02:31:27.345Z,51.10
2018-06-24T02:33:55.598Z,53.30
2018-06-24T02:36:24.593Z,49.30
2018-06-24T02:38:53.598Z,49.30
2018-06-24T02:41:22.572Z,49.40
2018-06-24T02:43:51.541Z,49.20
2018-06-24T02:46:19.798Z,49.20
2018-06-24T02:48:47.999Z,49.30
2018-06-24T02:51:16.220Z,50.30
2018-06-24T02:53:44.535Z,53.70
2018-06-24T02:56:13.459Z,52.00
2018-06-24T02:58:42.473Z,54.90
2018-06-24T03:01:11.496Z,52.60
2018-06-24T03:03:39.735Z,52.60
2018-06-24T03:06:08.693Z,51.80
2018-06-24T03:08:36.911Z,51.90
2018-06-24T03:11:05.163Z,51.60
2018-06-24T03:13:33.384Z,52.10
2018-06-24T03:16:01.601Z,50.40
2018-06-24T03:18:29.867Z,51.20
2018-06-24T03:20:58.110Z,50.50
2018-06-24T03:23:26.336Z,50.10
2018-06-24T03:25:54.557Z,49.70
2018-06-24T03:28:22.819Z,51.00
2018-06-24T03:30:51.799Z,49.70
2018-06-24T03:33:20.021Z,49.70
2018-06-24T03:35:48.235Z,49.60
2018-06-24T03:38:16.444Z,50.00
2018-06-24T03:40:44.652Z,50.60
2018-06-24T03:43:12.930Z,51.80
2018-06-24T03:45:41.123Z,55.60
2018-06-24T03:48:09.345Z,50.90
2018-06-24T03:50:38.320Z,50.30
2018-06-24T03:53:06.669Z,50.30
2018-06-24T03:55:34.892Z,51.30
2018-06-24T03:58:03.902Z,51.40
2018-06-24T04:00:32.063Z,51.40
2018-06-24T04:03:01.051Z,51.60
2018-06-24T04:05:30.043Z,54.80
2018-06-24T04:07:59.028Z,54.20
2018-06-24T04:10:28.057Z,51.60
2018-06-24T04:12:56.304Z,51.60
2018-06-24T04:15:25.332Z,59.60
2018-06-24T04:17:53.586Z,59.60
2018-06-24T04:20:22.612Z,55.80
2018-06-24T04:22:50.862Z,55.70
2018-06-24T04:25:19.878Z,63.50
2018-06-24T04:27:48.124Z,63.20
2018-06-24T04:30:17.092Z,57.20
2018-06-24T04:32:45.360Z,57.10
2018-06-24T04:35:13.594Z,56.00
2018-06-24T04:37:41.842Z,55.90
2018-06-24T04:40:10.864Z,58.20
2018-06-24T04:42:39.110Z,58.40
2018-06-24T04:45:07.354Z,53.60
2018-06-24T04:47:35.614Z,58.20
2018-06-24T04:50:03.819Z,54.70
2018-06-24T04:52:32.039Z,61.00
2018-06-24T04:55:00.241Z,55.40
2018-06-24T04:57:28.510Z,59.40
2018-06-24T04:59:56.717Z,56.80
2018-06-24T05:02:24.937Z,53.80
2018-06-24T05:04:53.192Z,55.20
2018-06-24T05:07:21.462Z,57.50
2018-06-24T05:09:49.663Z,60.20
2018-06-24T05:12:18.652Z,59.30
2018-06-24T05:14:47.664Z,61.50
2018-06-24T05:17:15.922Z,61.80
2018-06-24T05:19:44.890Z,65.40
2018-06-24T05:22:13.158Z,64.90
2018-06-24T05:24:41.401Z,62.20
2018-06-24T05:27:09.631Z,56.80
2018-06-24T05:29:37.836Z,64.60
2018-06-24T05:32:06.116Z,63.20
2018-06-24T05:34:34.323Z,66.20
2018-06-24T05:37:02.551Z,64.50
2018-06-24T05:39:31.540Z,65.60
2018-06-24T05:42:00.526Z,59.70
2018-06-24T05:44:29.540Z,62.20
2018-06-24T05:46:58.576Z,59.10
2018-06-24T05:49:26.836Z,59.70
2018-06-24T05:51:55.038Z,59.00
2018-06-24T05:54:23.314Z,63.20
2018-06-24T05:56:51.554Z,57.70
2018-06-24T05:59:19.775Z,57.40
2018-06-24T06:01:48.034Z,62.20
2018-06-24T06:04:16.233Z,58.50
2018-06-24T06:06:44.452Z,57.40
2018-06-24T06:09:12.658Z,56.50
2018-06-24T06:11:40.896Z,57.00
2018-06-24T06:14:09.905Z,58.90
2018-06-24T06:16:38.121Z,59.10
2018-06-24T06:19:06.339Z,56.40
2018-06-24T06:21:34.580Z,55.90
2018-06-24T06:24:02.783Z,58.70
2018-06-24T06:26:31.777Z,55.10
2018-06-24T06:29:00.795Z,58.70
2018-06-24T06:31:29.051Z,58.80
2018-06-24T06:33:58.068Z,56.50
2018-06-24T06:36:26.336Z,56.60
2018-06-24T06:38:55.319Z,56.70
2018-06-24T06:41:24.295Z,57.40
2018-06-24T06:43:52.554Z,57.50
2018-06-24T06:46:20.790Z,58.90
2018-06-24T06:48:49.045Z,58.30
2018-06-24T06:51:18.065Z,57.10
2018-06-24T06:53:46.323Z,57.10
2018-06-24T06:56:15.335Z,57.30
2018-06-24T06:58:43.565Z,57.30
2018-06-24T07:01:11.842Z,57.40
2018-06-24T07:03:40.057Z,55.50
2018-06-24T07:06:08.661Z,54.90
2018-06-24T07:08:36.942Z,55.80
2018-06-24T07:11:05.135Z,54.90
2018-06-24T07:13:33.441Z,54.70
2018-06-24T07:16:01.624Z,54.50
2018-06-24T07:18:30.609Z,53.70
2018-06-24T07:20:59.617Z,53.80
2018-06-24T07:23:28.672Z,53.50
2018-06-24T07:25:56.987Z,53.50
2018-06-24T07:28:25.180Z,53.40
2018-06-24T07:30:53.435Z,52.90
2018-06-24T07:33:22.446Z,53.00
2018-06-24T07:35:51.463Z,51.70
2018-06-24T07:38:19.700Z,51.70
2018-06-24T07:40:48.693Z,52.90
2018-06-24T07:43:17.685Z,52.30
2018-06-24T07:45:46.669Z,52.90
2018-06-24T07:48:16.202Z,52.60
2018-06-24T07:50:44.606Z,51.70
2018-06-24T07:53:12.862Z,51.70
2018-06-24T07:55:41.069Z,51.90
2018-06-24T07:58:09.327Z,51.40
2018-06-24T08:00:37.543Z,51.50
2018-06-24T08:03:05.764Z,51.40
2018-06-24T08:05:34.020Z,50.80
2018-06-24T08:08:02.286Z,51.60
2018-06-24T08:10:30.480Z,51.70
2018-06-24T08:12:59.471Z,50.90
2018-06-24T08:15:28.483Z,51.30
2018-06-24T08:17:56.753Z,51.30
2018-06-24T08:20:25.768Z,51.20
2018-06-24T08:22:54.026Z,51.20
2018-06-24T08:25:22.253Z,51.20
2018-06-24T08:27:50.493Z,51.20
2018-06-24T08:30:18.747Z,50.70
2018-06-24T08:32:46.960Z,51.20
2018-06-24T08:35:15.212Z,51.40
2018-06-24T08:37:43.480Z,51.30
2018-06-24T08:40:12.486Z,50.50
2018-06-24T08:42:41.468Z,50.70
2018-06-24T08:45:09.737Z,50.70
2018-06-24T08:47:37.941Z,48.40
2018-06-24T08:50:06.159Z,50.50
2018-06-24T08:52:34.442Z,50.70
2018-06-24T08:55:02.642Z,49.90
2018-06-24T08:57:31.678Z,47.30
2018-06-24T08:59:59.929Z,47.40
2018-06-24T09:02:28.950Z,49.50
2018-06-24T09:04:57.169Z,49.60
2018-06-24T09:07:25.435Z,49.00
2018-06-24T09:09:53.674Z,49.80
2018-06-24T09:12:21.900Z,49.80
2018-06-24T09:14:50.129Z,48.10
2018-06-24T09:17:18.384Z,49.20
2018-06-24T09:19:47.346Z,49.60
2018-06-24T09:22:15.589Z,49.60
2018-06-24T09:24:43.842Z,48.00
2018-06-24T09:27:12.095Z,49.40
2018-06-24T09:29:41.103Z,49.50
2018-06-24T09:32:10.102Z,48.70
2018-06-24T09:34:38.318Z,48.70
2018-06-24T09:37:06.549Z,49.20
2018-06-24T09:39:34.761Z,48.60
2018-06-24T09:42:03.034Z,48.80
2018-06-24T09:44:31.288Z,48.90
2018-06-24T09:46:59.543Z,48.70
2018-06-24T09:49:28.573Z,49.10
2018-06-24T09:51:56.812Z,49.00
2018-06-24T09:54:25.837Z,48.80
2018-06-24T09:56:54.040Z,48.90
2018-06-24T09:59:22.272Z,49.10
2018-06-24T10:01:50.540Z,48.90
2018-06-24T10:04:19.562Z,48.80
2018-06-24T10:06:47.801Z,48.80
2018-06-24T10:09:16.842Z,48.80
2018-06-24T10:11:45.054Z,48.70
2018-06-24T10:14:13.321Z,49.20
2018-06-24T10:16:41.516Z,48.50
2018-06-24T10:19:09.785Z,49.40
2018-06-24T10:21:37.985Z,49.60
2018-06-24T10:24:06.979Z,49.30
2018-06-24T10:26:36.000Z,48.70
2018-06-24T10:29:04.202Z,48.70
2018-06-24T10:31:32.531Z,49.30
2018-06-24T10:34:01.530Z,49.00
2018-06-24T10:36:30.510Z,48.30
2018-06-24T10:38:59.506Z,46.90
2018-06-24T10:41:27.715Z,46.90
2018-06-24T10:43:55.950Z,45.60
2018-06-24T10:46:24.262Z,47.80
2018-06-24T10:48:53.301Z,47.20
2018-06-24T10:51:21.543Z,47.10
2018-06-24T10:53:49.808Z,44.20
2018-06-24T10:56:18.062Z,45.20
2018-06-24T10:58:47.076Z,46.30
2018-06-24T11:01:15.332Z,46.30
2018-06-24T11:03:44.319Z,46.30
2018-06-24T11:06:13.298Z,47.10
2018-06-24T11:08:41.578Z,47.10
2018-06-24T11:11:09.768Z,46.70
2018-06-24T11:13:38.798Z,47.00
2018-06-24T11:16:07.000Z,47.00
2018-06-24T11:18:35.259Z,46.00
2018-06-24T11:21:03.466Z,47.30
2018-06-24T11:23:31.747Z,46.80
2018-06-24T11:25:59.972Z,46.80
2018-06-24T11:28:28.213Z,47.10
2018-06-24T11:30:56.511Z,47.40
2018-06-24T11:33:24.687Z,47.20
2018-06-24T11:35:52.952Z,45.70
2018-06-24T11:38:21.990Z,45.10
2018-06-24T11:40:50.250Z,44.90
2018-06-24T11:43:18.504Z,45.90
2018-06-24T11:45:47.526Z,45.60
2018-06-24T11:48:15.771Z,45.60
2018-06-24T11:50:44.792Z,46.50
2018-06-24T11:53:13.055Z,46.40
2018-06-24T11:55:42.050Z,46.80
2018-06-24T11:58:10.325Z,46.80
2018-06-24T12:00:39.324Z,45.90
2018-06-24T12:03:08.306Z,43.90
2018-06-24T12:05:37.312Z,43.20
2018-06-24T12:08:05.540Z,43.20
2018-06-24T12:10:33.751Z,45.70
2018-06-24T12:13:02.744Z,43.90
2018-06-24T12:15:31.751Z,44.80
2018-06-24T12:18:00.792Z,44.60
2018-06-24T12:20:29.047Z,44.60
2018-06-24T12:22:57.254Z,45.20
2018-06-24T12:25:25.543Z,45.50
2018-06-24T12:27:53.806Z,43.80
2018-06-24T12:30:22.016Z,46.20
2018-06-24T12:32:51.017Z,46.00
2018-06-24T12:35:20.046Z,45.10
2018-06-24T12:37:48.307Z,45.10
2018-06-24T12:40:16.562Z,44.50
2018-06-24T12:42:44.767Z,43.80
2018-06-24T12:45:12.976Z,42.20
2018-06-24T12:47:41.254Z,44.20
2018-06-24T12:50:09.500Z,41.90
2018-06-24T12:52:37.737Z,44.20
2018-06-24T12:55:06.763Z,45.40
2018-06-24T12:57:35.004Z,45.40
2018-06-24T13:00:04.456Z,39.50
2018-06-24T13:02:32.253Z,39.20
2018-06-24T13:05:01.239Z,43.60
2018-06-24T13:07:29.451Z,44.60
2018-06-24T13:09:58.444Z,46.00
2018-06-24T13:12:27.436Z,42.50
2018-06-24T13:14:55.705Z,42.50
2018-06-24T13:17:23.931Z,41.60
2018-06-24T13:19:52.180Z,44.30
2018-06-24T13:22:21.197Z,42.20
2018-06-24T13:24:49.483Z,41.90
2018-06-24T13:27:17.729Z,44.50
2018-06-24T13:29:46.717Z,41.50
2018-06-24T13:32:15.736Z,40.20
2018-06-24T13:34:43.997Z,40.00
2018-06-24T13:37:12.224Z,43.50
2018-06-24T13:39:40.453Z,44.20
2018-06-24T13:42:08.706Z,42.70
2018-06-24T13:44:37.711Z,43.80
2018-06-24T13:47:06.693Z,43.20
2018-06-24T13:49:35.780Z,42.40
2018-06-24T13:52:04.027Z,42.50
2018-06-24T13:54:32.237Z,42.00
2018-06-24T13:57:00.466Z,43.10
2018-06-24T13:59:28.696Z,41.60
2018-06-24T14:01:57.741Z,43.70
2018-06-24T14:04:25.988Z,43.70
2018-06-24T14:06:54.191Z,43.30
2018-06-24T14:09:22.424Z,43.60
2018-06-24T14:11:51.416Z,43.40
2018-06-24T14:14:20.412Z,42.80
2018-06-24T14:16:49.427Z,39.10
2018-06-24T14:19:17.656Z,39.10
2018-06-24T14:21:45.878Z,43.80
2018-06-24T14:24:14.106Z,44.30
2018-06-24T14:26:42.322Z,41.70
2018-06-24T14:29:10.557Z,41.90
2018-06-24T14:31:38.825Z,43.30
2018-06-24T14:34:07.076Z,41.50
2018-06-24T14:36:35.325Z,43.00
2018-06-24T14:39:04.347Z,43.10
2018-06-24T14:41:33.294Z,43.10
2018-06-24T14:44:01.536Z,44.10
2018-06-24T14:46:29.775Z,42.40
2018-06-24T14:48:58.742Z,44.40
2018-06-24T14:51:27.789Z,43.50
2018-06-24T14:53:56.008Z,43.50
2018-06-24T14:56:25.044Z,43.40
2018-06-24T14:58:53.306Z,43.00
2018-06-24T15:01:22.329Z,43.30
2018-06-24T15:03:51.271Z,42.80
2018-06-24T15:06:20.263Z,43.50
2018-06-24T15:08:48.495Z,43.40
2018-06-24T15:11:16.731Z,43.20
2018-06-24T15:13:45.719Z,42.00
2018-06-24T15:16:14.764Z,43.90
2018-06-24T15:18:42.965Z,43.90
2018-06-24T15:21:11.235Z,43.70
2018-06-24T15:23:39.510Z,41.00
2018-06-24T15:26:07.776Z,42.50
2018-06-24T15:28:36.010Z,41.60
2018-06-24T15:31:04.998Z,41.50
2018-06-24T15:33:33.263Z,41.40
2018-06-24T15:36:02.330Z,40.10
2018-06-24T15:38:30.549Z,40.10
2018-06-24T15:40:59.579Z,42.40
2018-06-24T15:43:27.808Z,42.40
2018-06-24T15:45:56.837Z,40.90
2018-06-24T15:48:25.111Z,40.80
2018-06-24T15:50:53.323Z,42.80
2018-06-24T15:53:21.609Z,41.00
2018-06-24T15:55:49.807Z,41.40
2018-06-24T15:58:18.857Z,41.50
2018-06-24T16:00:47.114Z,41.50
2018-06-24T16:03:15.397Z,42.00
2018-06-24T16:05:43.586Z,41.90
2018-06-24T16:08:11.841Z,42.00
2018-06-24T16:10:40.057Z,41.00
2018-06-24T16:13:08.325Z,41.40
2018-06-24T16:15:36.589Z,39.50
2018-06-24T16:18:04.865Z,41.70
2018-06-24T16:20:33.155Z,42.50
2018-06-24T16:23:02.095Z,42.30
2018-06-24T16:25:31.128Z,41.20
2018-06-24T16:27:59.386Z,41.30
2018-06-24T16:30:27.643Z,40.50
2018-06-24T16:32:56.669Z,40.70
2018-06-24T16:35:24.898Z,40.50
2018-06-24T16:37:53.195Z,41.60
2018-06-24T16:40:22.200Z,41.50
2018-06-24T16:42:50.409Z,41.50
2018-06-24T16:45:18.679Z,41.60
2018-06-24T16:47:46.936Z,41.40
2018-06-24T16:50:15.157Z,41.40
2018-06-24T16:52:43.411Z,41.50
2018-06-24T16:55:11.678Z,41.40
2018-06-24T16:57:39.936Z,41.30
2018-06-24T17:00:08.921Z,41.60
2018-06-24T17:02:37.914Z,41.20
2018-06-24T17:05:06.907Z,40.90
2018-06-24T17:07:35.185Z,40.90
2018-06-24T17:10:04.177Z,41.30
2018-06-24T17:12:33.205Z,42.40
2018-06-24T17:15:01.420Z,42.30
2018-06-24T17:17:29.641Z,41.40
2018-06-24T17:19:57.995Z,42.00
2018-06-24T17:22:26.205Z,41.70
2018-06-24T17:24:54.468Z,42.10
2018-06-24T17:27:22.713Z,42.20
2018-06-24T17:29:50.964Z,41.90
2018-06-24T17:32:19.221Z,42.10
2018-06-24T17:34:47.447Z,41.50
2018-06-24T17:37:16.433Z,42.10
2018-06-24T17:39:44.664Z,41.90
2018-06-24T17:42:12.942Z,41.10
2018-06-24T17:44:41.188Z,42.10
2018-06-24T17:47:10.200Z,41.90
2018-06-24T17:49:38.499Z,42.00
2018-06-24T17:52:06.725Z,42.00
2018-06-24T17:54:34.966Z,42.20
2018-06-24T17:57:03.232Z,42.30
2018-06-24T17:59:31.483Z,42.30
2018-06-24T18:01:59.750Z,42.30
2018-06-24T18:04:28.765Z,41.70
2018-06-24T18:06:57.010Z,41.60
2018-06-24T18:09:26.029Z,42.30
2018-06-24T18:11:54.264Z,42.30
2018-06-24T18:14:22.532Z,42.30
2018-06-24T18:16:50.754Z,42.10
2018-06-24T18:19:18.976Z,42.30
2018-06-24T18:21:47.199Z,42.30
2018-06-24T18:24:15.481Z,42.30
2018-06-24T18:26:44.466Z,42.50
2018-06-24T18:29:12.727Z,42.50
2018-06-24T18:31:40.966Z,42.30
2018-06-24T18:34:09.231Z,42.30
2018-06-24T18:36:37.492Z,42.10
2018-06-24T18:39:05.689Z,43.00
2018-06-24T18:41:33.974Z,42.40
2018-06-24T18:44:02.223Z,42.40
2018-06-24T18:46:30.443Z,42.30
2018-06-24T18:48:58.699Z,42.50
2018-06-24T18:51:26.975Z,42.50
2018-06-24T18:53:55.964Z,42.60
2018-06-24T18:56:24.184Z,42.50
2018-06-24T18:58:53.225Z,42.50
2018-06-24T19:01:21.502Z,42.50
2018-06-24T19:03:49.722Z,42.60
2018-06-24T19:06:17.967Z,42.90
2018-06-24T19:08:46.233Z,42.80
2018-06-24T19:11:14.492Z,43.10
2018-06-24T19:13:42.752Z,43.10
2018-06-24T19:16:11.000Z,43.30
2018-06-24T19:18:39.263Z,43.50
2018-06-24T19:21:07.522Z,43.40
2018-06-24T19:23:35.791Z,43.40
2018-06-24T19:26:04.042Z,43.10
2018-06-24T19:28:33.054Z,43.20
2018-06-24T19:31:01.286Z,43.20
2018-06-24T19:33:30.332Z,43.30
2018-06-24T19:35:58.538Z,43.30
2018-06-24T19:38:26.745Z,43.40
2018-06-24T19:40:55.767Z,44.10
2018-06-24T19:43:24.031Z,44.00
2018-06-24T19:45:53.011Z,43.60
2018-06-24T19:48:22.000Z,43.60
2018-06-24T19:50:51.035Z,43.60
2018-06-24T19:53:19.257Z,43.60
2018-06-24T19:55:47.512Z,43.90
2018-06-24T19:58:15.777Z,44.60
2018-06-24T20:00:43.991Z,43.50
2018-06-24T20:03:12.304Z,43.90
2018-06-24T20:05:41.250Z,43.50
2018-06-24T20:08:09.539Z,43.50
2018-06-24T20:10:37.775Z,43.60
2018-06-24T20:13:06.047Z,43.80
2018-06-24T20:15:34.308Z,43.50
2018-06-24T20:18:02.587Z,43.80
2018-06-24T20:20:30.834Z,44.60
2018-06-24T20:22:59.094Z,44.20
2018-06-24T20:25:27.315Z,44.00
2018-06-24T20:27:55.564Z,43.90
2018-06-24T20:30:24.547Z,43.90
2018-06-24T20:32:53.538Z,44.00
2018-06-24T20:35:21.752Z,43.70
2018-06-24T20:37:50.016Z,44.10
2018-06-24T20:40:18.977Z,44.10
2018-06-24T20:42:47.191Z,44.00
2018-06-24T20:45:15.406Z,43.60
2018-06-24T20:47:43.653Z,43.60
2018-06-24T20:50:11.901Z,43.90
2018-06-24T20:52:40.108Z,44.00
2018-06-24T20:55:08.360Z,43.70
2018-06-24T20:57:37.402Z,43.90
2018-06-24T21:00:05.611Z,43.90
2018-06-24T21:02:33.889Z,44.20
2018-06-24T21:05:02.088Z,44.60
2018-06-24T21:07:31.115Z,44.10
2018-06-24T21:09:59.360Z,44.10
2018-06-24T21:12:28.341Z,44.70
2018-06-24T21:14:57.359Z,44.20
2018-06-24T21:17:25.584Z,44.20
2018-06-24T21:19:53.837Z,44.40
2018-06-24T21:22:22.062Z,44.10
2018-06-24T21:24:51.075Z,43.90
2018-06-24T21:27:20.112Z,44.00
2018-06-24T21:29:48.348Z,44.10
2018-06-24T21:32:16.570Z,43.90
2018-06-24T21:34:44.793Z,44.00
2018-06-24T21:37:13.822Z,44.10
2018-06-24T21:39:42.079Z,44.10
2018-06-24T21:42:10.285Z,44.00
2018-06-24T21:44:38.509Z,44.00
2018-06-24T21:47:07.487Z,45.20
2018-06-24T21:49:36.510Z,46.40
2018-06-24T21:52:04.719Z,45.70
2018-06-24T21:54:32.976Z,44.80
2018-06-24T21:57:01.240Z,44.20
2018-06-24T21:59:30.228Z,44.40
2018-06-24T22:01:59.235Z,44.90
2018-06-24T22:04:27.426Z,44.90
2018-06-24T22:06:55.655Z,44.60
2018-06-24T22:09:23.919Z,44.70
2018-06-24T22:11:52.137Z,44.20
2018-06-24T22:14:20.368Z,44.50
2018-06-24T22:16:48.578Z,44.50
2018-06-24T22:19:17.547Z,44.50
2018-06-24T22:21:45.867Z,44.50
2018-06-24T22:24:14.025Z,43.90
2018-06-24T22:26:42.280Z,44.20
2018-06-24T22:29:10.534Z,44.00
2018-06-24T22:31:39.587Z,45.20
2018-06-24T22:34:07.835Z,45.20
2018-06-24T22:36:36.137Z,44.40
2018-06-24T22:39:04.345Z,44.40
2018-06-24T22:41:32.562Z,45.30
2018-06-24T22:44:01.570Z,45.00
2018-06-24T22:46:30.579Z,45.70
2018-06-24T22:48:58.825Z,45.20
2018-06-24T22:51:27.077Z,44.60
2018-06-24T22:53:55.293Z,46.00
2018-06-24T22:56:23.510Z,44.50
2018-06-24T22:58:51.723Z,45.80
2018-06-24T23:01:20.766Z,46.10
2018-06-24T23:03:48.971Z,46.30
2018-06-24T23:06:17.224Z,44.70
2018-06-24T23:08:45.425Z,44.80
2018-06-24T23:11:13.675Z,44.50
2018-06-24T23:13:41.940Z,44.90
2018-06-24T23:16:10.159Z,45.90
2018-06-24T23:18:38.422Z,45.70
2018-06-24T23:21:06.631Z,45.10
2018-06-24T23:23:34.850Z,45.50
2018-06-24T23:26:03.115Z,45.10
2018-06-24T23:28:31.350Z,45.40
2018-06-24T23:30:59.539Z,44.60
2018-06-24T23:33:28.594Z,44.50
2018-06-24T23:35:56.832Z,44.50
2018-06-24T23:38:25.100Z,44.70
2018-06-24T23:40:54.072Z,44.40
2018-06-24T23:43:22.315Z,44.40
2018-06-24T23:45:50.520Z,45.10
2018-06-24T23:48:18.775Z,44.90
2018-06-24T23:50:47.029Z,44.70
2018-06-24T23:53:15.276Z,44.70
2018-06-24T23:55:44.282Z,44.70
2018-06-24T23:58:13.314Z,44.90
